sensor_id;sensor_type;location;lat;lon;timestamp;temperature;humidity
39951;DHT22;25629;51.444;-2.606;2023-04-15T00:01:25;5.30;99.90
39951;DHT22;25629;51.444;-2.606;2023-04-15T00:03:51;5.30;99.90
39951;DHT22;25629;51.444;-2.606;2023-04-15T00:06:19;5.30;99.90
39951;DHT22;25629;51.444;-2.606;2023-04-15T00:08:45;5.30;99.90
39951;DHT22;25629;51.444;-2.606;2023-04-15T00:11:11;5.20;99.90
39951;DHT22;25629;51.444;-2.606;2023-04-15T00:13:37;5.10;99.90
39951;DHT22;25629;51.444;-2.606;2023-04-15T00:16:02;5.10;99.90
39951;DHT22;25629;51.444;-2.606;2023-04-15T00:18:28;5.10;99.90
39951;DHT22;25629;51.444;-2.606;2023-04-15T00:20:54;5.00;99.90
39951;DHT22;25629;51.444;-2.606;2023-04-15T00:23:19;5.10;99.90
39951;DHT22;25629;51.444;-2.606;2023-04-15T00:25:45;5.00;99.90
39951;DHT22;25629;51.444;-2.606;2023-04-15T00:28:11;5.00;99.90
39951;DHT22;25629;51.444;-2.606;2023-04-15T00:30:36;5.00;99.90
39951;DHT22;25629;51.444;-2.606;2023-04-15T00:33:02;4.90;99.90
39951;DHT22;25629;51.444;-2.606;2023-04-15T00:35:28;4.90;99.90
39951;DHT22;25629;51.444;-2.606;2023-04-15T00:37:53;5.00;99.90
39951;DHT22;25629;51.444;-2.606;2023-04-15T00:40:20;5.00;99.90
39951;DHT22;25629;51.444;-2.606;2023-04-15T00:42:45;5.00;99.90
39951;DHT22;25629;51.444;-2.606;2023-04-15T00:45:11;5.00;99.90
39951;DHT22;25629;51.444;-2.606;2023-04-15T00:47:37;5.00;99.90
39951;DHT22;25629;51.444;-2.606;2023-04-15T00:50:03;5.00;99.90
39951;DHT22;25629;51.444;-2.606;2023-04-15T00:52:29;5.00;99.90
39951;DHT22;25629;51.444;-2.606;2023-04-15T00:54:55;5.00;99.90
39951;DHT22;25629;51.444;-2.606;2023-04-15T00:57:20;5.00;99.90
39951;DHT22;25629;51.444;-2.606;2023-04-15T00:59:47;5.00;99.90
39951;DHT22;25629;51.444;-2.606;2023-04-15T01:02:12;5.10;99.90
39951;DHT22;25629;51.444;-2.606;2023-04-15T01:04:38;5.10;99.90
39951;DHT22;25629;51.444;-2.606;2023-04-15T01:07:04;5.10;99.90
39951;DHT22;25629;51.444;-2.606;2023-04-15T01:09:30;5.10;99.90
39951;DHT22;25629;51.444;-2.606;2023-04-15T01:11:57;5.20;99.90
39951;DHT22;25629;51.444;-2.606;2023-04-15T01:14:23;5.30;99.90
39951;DHT22;25629;51.444;-2.606;2023-04-15T01:16:49;5.30;99.90
39951;DHT22;25629;51.444;-2.606;2023-04-15T01:19:15;5.30;99.90
39951;DHT22;25629;51.444;-2.606;2023-04-15T01:21:42;5.30;99.90
39951;DHT22;25629;51.444;-2.606;2023-04-15T01:24:08;5.40;99.90
39951;DHT22;25629;51.444;-2.606;2023-04-15T01:26:36;5.40;99.90
39951;DHT22;25629;51.444;-2.606;2023-04-15T01:29:02;5.50;99.90
39951;DHT22;25629;51.444;-2.606;2023-04-15T01:31:27;5.60;99.90
39951;DHT22;25629;51.444;-2.606;2023-04-15T01:33:53;5.60;99.90
39951;DHT22;25629;51.444;-2.606;2023-04-15T01:36:18;5.70;99.90
39951;DHT22;25629;51.444;-2.606;2023-04-15T01:38:44;5.70;99.90
39951;DHT22;25629;51.444;-2.606;2023-04-15T01:41:10;5.70;99.90
39951;DHT22;25629;51.444;-2.606;2023-04-15T01:43:35;5.70;99.90
39951;DHT22;25629;51.444;-2.606;2023-04-15T01:46:04;5.70;99.90
39951;DHT22;25629;51.444;-2.606;2023-04-15T01:48:30;5.70;99.90
39951;DHT22;25629;51.444;-2.606;2023-04-15T01:50:56;5.70;99.90
39951;DHT22;25629;51.444;-2.606;2023-04-15T01:53:22;5.70;99.90
39951;DHT22;25629;51.444;-2.606;2023-04-15T01:55:48;5.70;99.90
39951;DHT22;25629;51.444;-2.606;2023-04-15T01:58:14;5.70;99.90
39951;DHT22;25629;51.444;-2.606;2023-04-15T02:00:40;5.70;99.90
39951;DHT22;25629;51.444;-2.606;2023-04-15T02:03:06;5.80;99.90
39951;DHT22;25629;51.444;-2.606;2023-04-15T02:05:32;5.70;99.90
39951;DHT22;25629;51.444;-2.606;2023-04-15T02:07:58;5.70;99.90
39951;DHT22;25629;51.444;-2.606;2023-04-15T02:10:23;5.60;99.90
39951;DHT22;25629;51.444;-2.606;2023-04-15T02:12:49;5.50;99.90
39951;DHT22;25629;51.444;-2.606;2023-04-15T02:15:15;5.40;99.90
39951;DHT22;25629;51.444;-2.606;2023-04-15T02:17:40;5.30;99.90
39951;DHT22;25629;51.444;-2.606;2023-04-15T02:20:10;5.30;99.90
39951;DHT22;25629;51.444;-2.606;2023-04-15T02:22:36;5.20;99.90
39951;DHT22;25629;51.444;-2.606;2023-04-15T02:25:01;5.20;99.90
39951;DHT22;25629;51.444;-2.606;2023-04-15T02:27:27;5.10;99.90
39951;DHT22;25629;51.444;-2.606;2023-04-15T02:29:53;5.10;99.90
39951;DHT22;25629;51.444;-2.606;2023-04-15T02:32:18;5.00;99.90
39951;DHT22;25629;51.444;-2.606;2023-04-15T02:34:46;5.00;99.90
39951;DHT22;25629;51.444;-2.606;2023-04-15T02:37:12;5.00;99.90
39951;DHT22;25629;51.444;-2.606;2023-04-15T02:39:37;4.90;99.90
39951;DHT22;25629;51.444;-2.606;2023-04-15T02:42:03;4.90;99.90
39951;DHT22;25629;51.444;-2.606;2023-04-15T02:44:30;4.90;99.90
39951;DHT22;25629;51.444;-2.606;2023-04-15T02:46:57;4.90;99.90
39951;DHT22;25629;51.444;-2.606;2023-04-15T02:49:23;4.90;99.90
39951;DHT22;25629;51.444;-2.606;2023-04-15T02:51:49;5.00;99.90
39951;DHT22;25629;51.444;-2.606;2023-04-15T02:54:16;5.00;99.90
39951;DHT22;25629;51.444;-2.606;2023-04-15T02:56:41;4.90;99.90
39951;DHT22;25629;51.444;-2.606;2023-04-15T02:59:07;4.90;99.90
39951;DHT22;25629;51.444;-2.606;2023-04-15T03:01:32;4.90;99.90
39951;DHT22;25629;51.444;-2.606;2023-04-15T03:03:58;4.90;99.90
39951;DHT22;25629;51.444;-2.606;2023-04-15T03:06:23;4.80;99.90
39951;DHT22;25629;51.444;-2.606;2023-04-15T03:08:49;4.70;99.90
39951;DHT22;25629;51.444;-2.606;2023-04-15T03:11:15;4.60;99.90
39951;DHT22;25629;51.444;-2.606;2023-04-15T03:13:41;4.60;99.90
39951;DHT22;25629;51.444;-2.606;2023-04-15T03:16:08;4.50;99.90
39951;DHT22;25629;51.444;-2.606;2023-04-15T03:18:33;4.50;99.90
39951;DHT22;25629;51.444;-2.606;2023-04-15T03:20:59;4.40;99.90
39951;DHT22;25629;51.444;-2.606;2023-04-15T03:23:25;4.40;99.90
39951;DHT22;25629;51.444;-2.606;2023-04-15T03:25:50;4.40;99.90
39951;DHT22;25629;51.444;-2.606;2023-04-15T03:28:16;4.30;99.90
39951;DHT22;25629;51.444;-2.606;2023-04-15T03:30:41;4.30;99.90
39951;DHT22;25629;51.444;-2.606;2023-04-15T03:33:07;4.30;99.90
39951;DHT22;25629;51.444;-2.606;2023-04-15T03:35:33;4.30;99.90
39951;DHT22;25629;51.444;-2.606;2023-04-15T03:37:59;4.30;99.90
39951;DHT22;25629;51.444;-2.606;2023-04-15T03:40:24;4.20;99.90
39951;DHT22;25629;51.444;-2.606;2023-04-15T03:42:50;4.20;99.90
39951;DHT22;25629;51.444;-2.606;2023-04-15T03:45:16;4.30;99.90
39951;DHT22;25629;51.444;-2.606;2023-04-15T03:47:41;4.20;99.90
39951;DHT22;25629;51.444;-2.606;2023-04-15T03:50:07;4.20;99.90
39951;DHT22;25629;51.444;-2.606;2023-04-15T03:52:32;4.20;99.90
39951;DHT22;25629;51.444;-2.606;2023-04-15T03:54:58;4.10;99.90
39951;DHT22;25629;51.444;-2.606;2023-04-15T03:57:23;4.10;99.90
39951;DHT22;25629;51.444;-2.606;2023-04-15T03:59:49;4.10;99.90
39951;DHT22;25629;51.444;-2.606;2023-04-15T04:02:15;4.10;99.90
39951;DHT22;25629;51.444;-2.606;2023-04-15T04:04:41;4.00;99.90
39951;DHT22;25629;51.444;-2.606;2023-04-15T04:07:08;4.00;99.90
39951;DHT22;25629;51.444;-2.606;2023-04-15T04:09:33;4.00;99.90
39951;DHT22;25629;51.444;-2.606;2023-04-15T04:11:59;4.00;99.90
39951;DHT22;25629;51.444;-2.606;2023-04-15T04:14:25;4.00;99.90
39951;DHT22;25629;51.444;-2.606;2023-04-15T04:16:54;3.90;99.90
39951;DHT22;25629;51.444;-2.606;2023-04-15T04:19:20;3.90;99.90
39951;DHT22;25629;51.444;-2.606;2023-04-15T04:21:45;3.80;99.90
39951;DHT22;25629;51.444;-2.606;2023-04-15T04:24:11;3.80;99.90
39951;DHT22;25629;51.444;-2.606;2023-04-15T04:26:36;3.80;99.90
39951;DHT22;25629;51.444;-2.606;2023-04-15T04:29:02;3.80;99.90
39951;DHT22;25629;51.444;-2.606;2023-04-15T04:31:27;3.80;99.90
39951;DHT22;25629;51.444;-2.606;2023-04-15T04:33:53;3.70;99.90
39951;DHT22;25629;51.444;-2.606;2023-04-15T04:36:19;3.70;99.90
39951;DHT22;25629;51.444;-2.606;2023-04-15T04:38:44;3.70;99.90
39951;DHT22;25629;51.444;-2.606;2023-04-15T04:41:10;3.70;99.90
39951;DHT22;25629;51.444;-2.606;2023-04-15T04:43:35;3.70;99.90
39951;DHT22;25629;51.444;-2.606;2023-04-15T04:46:01;3.70;99.90
39951;DHT22;25629;51.444;-2.606;2023-04-15T04:48:27;3.80;99.90
39951;DHT22;25629;51.444;-2.606;2023-04-15T04:50:52;3.90;99.90
39951;DHT22;25629;51.444;-2.606;2023-04-15T04:53:18;3.90;99.90
39951;DHT22;25629;51.444;-2.606;2023-04-15T04:55:43;3.90;99.90
39951;DHT22;25629;51.444;-2.606;2023-04-15T04:58:09;3.90;99.90
39951;DHT22;25629;51.444;-2.606;2023-04-15T05:00:34;3.90;99.90
39951;DHT22;25629;51.444;-2.606;2023-04-15T05:03:02;3.90;99.90
39951;DHT22;25629;51.444;-2.606;2023-04-15T05:05:27;3.90;99.90
39951;DHT22;25629;51.444;-2.606;2023-04-15T05:07:53;3.80;99.90
39951;DHT22;25629;51.444;-2.606;2023-04-15T05:10:19;3.80;99.90
39951;DHT22;25629;51.444;-2.606;2023-04-15T05:12:44;3.80;99.90
39951;DHT22;25629;51.444;-2.606;2023-04-15T05:15:10;3.80;99.90
39951;DHT22;25629;51.444;-2.606;2023-04-15T05:17:36;3.80;99.90
39951;DHT22;25629;51.444;-2.606;2023-04-15T05:20:02;3.70;99.90
39951;DHT22;25629;51.444;-2.606;2023-04-15T05:22:28;3.60;99.90
39951;DHT22;25629;51.444;-2.606;2023-04-15T05:24:53;3.70;99.90
39951;DHT22;25629;51.444;-2.606;2023-04-15T05:27:19;3.70;99.90
39951;DHT22;25629;51.444;-2.606;2023-04-15T05:29:44;3.60;99.90
39951;DHT22;25629;51.444;-2.606;2023-04-15T05:32:10;3.60;99.90
39951;DHT22;25629;51.444;-2.606;2023-04-15T05:34:36;3.60;99.90
39951;DHT22;25629;51.444;-2.606;2023-04-15T05:37:01;3.70;99.90
39951;DHT22;25629;51.444;-2.606;2023-04-15T05:39:27;3.70;99.90
39951;DHT22;25629;51.444;-2.606;2023-04-15T05:41:53;3.70;99.90
39951;DHT22;25629;51.444;-2.606;2023-04-15T05:44:18;3.80;99.90
39951;DHT22;25629;51.444;-2.606;2023-04-15T05:46:44;3.90;99.90
39951;DHT22;25629;51.444;-2.606;2023-04-15T05:49:10;3.90;99.90
39951;DHT22;25629;51.444;-2.606;2023-04-15T05:51:35;3.90;99.90
39951;DHT22;25629;51.444;-2.606;2023-04-15T05:54:01;3.90;99.90
39951;DHT22;25629;51.444;-2.606;2023-04-15T05:56:26;3.90;99.90
39951;DHT22;25629;51.444;-2.606;2023-04-15T05:58:52;3.90;99.90
39951;DHT22;25629;51.444;-2.606;2023-04-15T06:01:17;3.90;99.90
39951;DHT22;25629;51.444;-2.606;2023-04-15T06:03:43;3.90;99.90
39951;DHT22;25629;51.444;-2.606;2023-04-15T06:06:09;3.90;99.90
39951;DHT22;25629;51.444;-2.606;2023-04-15T06:08:34;3.90;99.90
39951;DHT22;25629;51.444;-2.606;2023-04-15T06:11:00;4.00;99.90
39951;DHT22;25629;51.444;-2.606;2023-04-15T06:13:26;4.00;99.90
39951;DHT22;25629;51.444;-2.606;2023-04-15T06:15:52;4.10;99.90
39951;DHT22;25629;51.444;-2.606;2023-04-15T06:18:18;4.10;99.90
39951;DHT22;25629;51.444;-2.606;2023-04-15T06:20:44;4.20;99.90
39951;DHT22;25629;51.444;-2.606;2023-04-15T06:23:10;4.20;99.90
39951;DHT22;25629;51.444;-2.606;2023-04-15T06:25:36;4.40;99.90
39951;DHT22;25629;51.444;-2.606;2023-04-15T06:28:02;4.50;99.90
39951;DHT22;25629;51.444;-2.606;2023-04-15T06:30:27;4.70;99.90
39951;DHT22;25629;51.444;-2.606;2023-04-15T06:32:53;4.80;99.90
39951;DHT22;25629;51.444;-2.606;2023-04-15T06:35:19;5.10;99.90
39951;DHT22;25629;51.444;-2.606;2023-04-15T06:37:44;5.30;99.90
39951;DHT22;25629;51.444;-2.606;2023-04-15T06:40:10;5.50;99.90
39951;DHT22;25629;51.444;-2.606;2023-04-15T06:42:36;5.60;99.90
39951;DHT22;25629;51.444;-2.606;2023-04-15T06:45:02;5.60;99.90
39951;DHT22;25629;51.444;-2.606;2023-04-15T06:47:28;5.60;99.90
39951;DHT22;25629;51.444;-2.606;2023-04-15T06:49:54;5.60;99.90
39951;DHT22;25629;51.444;-2.606;2023-04-15T06:52:19;5.70;99.90
39951;DHT22;25629;51.444;-2.606;2023-04-15T06:54:45;5.80;99.90
39951;DHT22;25629;51.444;-2.606;2023-04-15T06:57:11;5.90;99.90
39951;DHT22;25629;51.444;-2.606;2023-04-15T06:59:36;6.10;99.90
39951;DHT22;25629;51.444;-2.606;2023-04-15T07:02:02;6.20;99.90
39951;DHT22;25629;51.444;-2.606;2023-04-15T07:04:28;6.40;99.90
39951;DHT22;25629;51.444;-2.606;2023-04-15T07:06:53;6.60;99.90
39951;DHT22;25629;51.444;-2.606;2023-04-15T07:09:20;6.70;99.90
39951;DHT22;25629;51.444;-2.606;2023-04-15T07:11:46;6.80;99.90
39951;DHT22;25629;51.444;-2.606;2023-04-15T07:14:11;6.90;99.90
39951;DHT22;25629;51.444;-2.606;2023-04-15T07:16:37;7.10;99.90
39951;DHT22;25629;51.444;-2.606;2023-04-15T07:19:03;7.10;99.90
39951;DHT22;25629;51.444;-2.606;2023-04-15T07:21:28;7.20;99.90
39951;DHT22;25629;51.444;-2.606;2023-04-15T07:23:54;7.30;99.90
39951;DHT22;25629;51.444;-2.606;2023-04-15T07:26:19;7.40;99.90
39951;DHT22;25629;51.444;-2.606;2023-04-15T07:28:45;7.40;99.90
39951;DHT22;25629;51.444;-2.606;2023-04-15T07:31:11;7.60;99.90
39951;DHT22;25629;51.444;-2.606;2023-04-15T07:33:37;7.70;99.90
39951;DHT22;25629;51.444;-2.606;2023-04-15T07:36:03;7.90;99.90
39951;DHT22;25629;51.444;-2.606;2023-04-15T07:38:28;8.10;99.90
39951;DHT22;25629;51.444;-2.606;2023-04-15T07:40:54;8.30;99.90
39951;DHT22;25629;51.444;-2.606;2023-04-15T07:43:20;8.40;99.90
39951;DHT22;25629;51.444;-2.606;2023-04-15T07:45:46;8.50;99.90
39951;DHT22;25629;51.444;-2.606;2023-04-15T07:48:12;8.70;99.90
39951;DHT22;25629;51.444;-2.606;2023-04-15T07:50:37;8.80;99.90
39951;DHT22;25629;51.444;-2.606;2023-04-15T07:53:03;8.90;99.90
39951;DHT22;25629;51.444;-2.606;2023-04-15T07:55:29;9.10;99.90
39951;DHT22;25629;51.444;-2.606;2023-04-15T07:57:55;9.50;99.90
39951;DHT22;25629;51.444;-2.606;2023-04-15T08:00:21;9.70;99.90
39951;DHT22;25629;51.444;-2.606;2023-04-15T08:02:48;9.80;99.90
39951;DHT22;25629;51.444;-2.606;2023-04-15T08:05:14;9.80;99.40
39951;DHT22;25629;51.444;-2.606;2023-04-15T08:07:42;10.00;98.30
39951;DHT22;25629;51.444;-2.606;2023-04-15T08:10:07;10.10;94.90
39951;DHT22;25629;51.444;-2.606;2023-04-15T08:12:34;10.00;91.20
39951;DHT22;25629;51.444;-2.606;2023-04-15T08:15:00;10.00;92.50
39951;DHT22;25629;51.444;-2.606;2023-04-15T08:17:26;10.10;92.80
39951;DHT22;25629;51.444;-2.606;2023-04-15T08:19:52;10.20;87.50
39951;DHT22;25629;51.444;-2.606;2023-04-15T08:22:18;10.20;79.60
39951;DHT22;25629;51.444;-2.606;2023-04-15T08:24:44;10.20;76.80
39951;DHT22;25629;51.444;-2.606;2023-04-15T08:27:09;10.20;78.40
39951;DHT22;25629;51.444;-2.606;2023-04-15T08:29:35;10.00;71.50
39951;DHT22;25629;51.444;-2.606;2023-04-15T08:32:01;9.90;80.30
39951;DHT22;25629;51.444;-2.606;2023-04-15T08:34:27;10.00;85.60
39951;DHT22;25629;51.444;-2.606;2023-04-15T08:36:52;10.10;83.80
39951;DHT22;25629;51.444;-2.606;2023-04-15T08:39:18;10.30;76.40
39951;DHT22;25629;51.444;-2.606;2023-04-15T08:41:47;10.60;86.40
39951;DHT22;25629;51.444;-2.606;2023-04-15T08:44:16;10.80;67.00
39951;DHT22;25629;51.444;-2.606;2023-04-15T08:46:42;10.90;74.20
39951;DHT22;25629;51.444;-2.606;2023-04-15T08:49:09;11.20;73.00
39951;DHT22;25629;51.444;-2.606;2023-04-15T08:51:36;11.40;55.00
39951;DHT22;25629;51.444;-2.606;2023-04-15T08:54:02;11.50;56.60
39951;DHT22;25629;51.444;-2.606;2023-04-15T08:56:28;11.60;43.00
39951;DHT22;25629;51.444;-2.606;2023-04-15T08:58:55;11.80;46.40
39951;DHT22;25629;51.444;-2.606;2023-04-15T09:04:08;12.20;35.00
39951;DHT22;25629;51.444;-2.606;2023-04-15T09:06:34;12.20;1.00
39951;DHT22;25629;51.444;-2.606;2023-04-15T09:09:01;12.20;1.00
39951;DHT22;25629;51.444;-2.606;2023-04-15T09:11:26;12.20;1.00
39951;DHT22;25629;51.444;-2.606;2023-04-15T09:13:55;12.50;99.90
39951;DHT22;25629;51.444;-2.606;2023-04-15T09:16:20;12.70;99.90
39951;DHT22;25629;51.444;-2.606;2023-04-15T09:18:46;12.40;99.90
39951;DHT22;25629;51.444;-2.606;2023-04-15T09:21:13;12.20;99.90
39951;DHT22;25629;51.444;-2.606;2023-04-15T09:23:40;12.10;99.90
39951;DHT22;25629;51.444;-2.606;2023-04-15T09:26:05;12.30;99.90
39951;DHT22;25629;51.444;-2.606;2023-04-15T09:28:31;12.50;99.90
39951;DHT22;25629;51.444;-2.606;2023-04-15T09:30:57;13.00;1.00
39951;DHT22;25629;51.444;-2.606;2023-04-15T09:33:24;13.60;99.90
39951;DHT22;25629;51.444;-2.606;2023-04-15T09:35:57;14.00;99.90
39951;DHT22;25629;51.444;-2.606;2023-04-15T09:38:23;14.30;99.90
39951;DHT22;25629;51.444;-2.606;2023-04-15T09:40:48;14.60;1.00
39951;DHT22;25629;51.444;-2.606;2023-04-15T09:43:14;14.80;99.90
39951;DHT22;25629;51.444;-2.606;2023-04-15T09:45:48;15.10;99.90
39951;DHT22;25629;51.444;-2.606;2023-04-15T09:48:23;15.20;1.00
39951;DHT22;25629;51.444;-2.606;2023-04-15T09:50:53;14.20;1.00
39951;DHT22;25629;51.444;-2.606;2023-04-15T09:53:22;13.20;99.90
39951;DHT22;25629;51.444;-2.606;2023-04-15T09:55:52;12.60;99.90
39951;DHT22;25629;51.444;-2.606;2023-04-15T09:58:19;12.40;97.60
39951;DHT22;25629;51.444;-2.606;2023-04-15T10:00:49;12.80;1.00
39951;DHT22;25629;51.444;-2.606;2023-04-15T10:03:18;13.40;52.40
39951;DHT22;25629;51.444;-2.606;2023-04-15T10:05:45;13.90;99.90
39951;DHT22;25629;51.444;-2.606;2023-04-15T10:08:12;14.30;1.00
39951;DHT22;25629;51.444;-2.606;2023-04-15T10:10:37;14.50;99.90
39951;DHT22;25629;51.444;-2.606;2023-04-15T10:13:03;14.70;1.00
39951;DHT22;25629;51.444;-2.606;2023-04-15T10:15:29;15.10;59.20
39951;DHT22;25629;51.444;-2.606;2023-04-15T10:17:55;15.50;1.00
39951;DHT22;25629;51.444;-2.606;2023-04-15T10:20:22;15.50;99.90
39951;DHT22;25629;51.444;-2.606;2023-04-15T10:22:48;15.50;99.90
39951;DHT22;25629;51.444;-2.606;2023-04-15T10:25:14;15.90;99.90
39951;DHT22;25629;51.444;-2.606;2023-04-15T10:27:39;16.20;99.90
39951;DHT22;25629;51.444;-2.606;2023-04-15T10:30:08;16.40;99.90
39951;DHT22;25629;51.444;-2.606;2023-04-15T10:32:35;16.60;99.90
39951;DHT22;25629;51.444;-2.606;2023-04-15T10:35:02;16.40;99.90
39951;DHT22;25629;51.444;-2.606;2023-04-15T10:37:33;16.20;99.90
39951;DHT22;25629;51.444;-2.606;2023-04-15T10:39:58;16.00;99.90
39951;DHT22;25629;51.444;-2.606;2023-04-15T10:42:24;16.20;99.90
39951;DHT22;25629;51.444;-2.606;2023-04-15T10:44:57;16.30;99.90
39951;DHT22;25629;51.444;-2.606;2023-04-15T10:47:24;16.00;65.10
39951;DHT22;25629;51.444;-2.606;2023-04-15T10:50:00;16.10;99.90
39951;DHT22;25629;51.444;-2.606;2023-04-15T10:52:27;16.50;99.90
39951;DHT22;25629;51.444;-2.606;2023-04-15T10:57:37;16.70;84.10
39951;DHT22;25629;51.444;-2.606;2023-04-15T11:00:12;16.70;1.00
39951;DHT22;25629;51.444;-2.606;2023-04-15T11:05:05;16.10;1.00
39951;DHT22;25629;51.444;-2.606;2023-04-15T11:07:48;15.40;1.00
39951;DHT22;25629;51.444;-2.606;2023-04-15T11:12:45;14.70;12.60
39951;DHT22;25629;51.444;-2.606;2023-04-15T11:17:56;15.30;99.90
39951;DHT22;25629;51.444;-2.606;2023-04-15T11:20:22;16.00;71.40
39951;DHT22;25629;51.444;-2.606;2023-04-15T11:22:54;16.50;7.50
39951;DHT22;25629;51.444;-2.606;2023-04-15T11:25:27;16.90;1.00
39951;DHT22;25629;51.444;-2.606;2023-04-15T11:27:53;17.30;1.00
39951;DHT22;25629;51.444;-2.606;2023-04-15T11:32:48;17.50;1.00
39951;DHT22;25629;51.444;-2.606;2023-04-15T11:35:15;16.80;1.00
39951;DHT22;25629;51.444;-2.606;2023-04-15T11:37:40;16.00;1.00
39951;DHT22;25629;51.444;-2.606;2023-04-15T11:40:06;15.80;1.00
39951;DHT22;25629;51.444;-2.606;2023-04-15T11:42:32;16.20;1.00
39951;DHT22;25629;51.444;-2.606;2023-04-15T11:45:10;16.00;1.00
39951;DHT22;25629;51.444;-2.606;2023-04-15T11:47:36;16.00;1.00
39951;DHT22;25629;51.444;-2.606;2023-04-15T11:50:18;15.80;1.00
39951;DHT22;25629;51.444;-2.606;2023-04-15T11:52:54;16.00;1.00
39951;DHT22;25629;51.444;-2.606;2023-04-15T11:55:19;16.20;1.00
39951;DHT22;25629;51.444;-2.606;2023-04-15T11:57:45;16.60;1.00
39951;DHT22;25629;51.444;-2.606;2023-04-15T12:00:11;16.60;1.00
39951;DHT22;25629;51.444;-2.606;2023-04-15T12:02:37;16.50;1.00
39951;DHT22;25629;51.444;-2.606;2023-04-15T12:05:07;16.00;1.00
39951;DHT22;25629;51.444;-2.606;2023-04-15T12:07:32;15.70;1.00
39951;DHT22;25629;51.444;-2.606;2023-04-15T12:09:58;15.50;1.00
39951;DHT22;25629;51.444;-2.606;2023-04-15T12:12:27;15.70;1.00
39951;DHT22;25629;51.444;-2.606;2023-04-15T12:14:55;16.30;1.00
39951;DHT22;25629;51.444;-2.606;2023-04-15T12:17:21;17.10;1.00
39951;DHT22;25629;51.444;-2.606;2023-04-15T12:19:47;17.50;1.00
39951;DHT22;25629;51.444;-2.606;2023-04-15T12:22:15;17.30;1.00
39951;DHT22;25629;51.444;-2.606;2023-04-15T12:24:41;17.00;1.00
39951;DHT22;25629;51.444;-2.606;2023-04-15T12:27:13;17.00;1.00
39951;DHT22;25629;51.444;-2.606;2023-04-15T12:29:39;16.70;1.00
39951;DHT22;25629;51.444;-2.606;2023-04-15T12:32:08;17.00;1.00
39951;DHT22;25629;51.444;-2.606;2023-04-15T12:34:35;17.80;1.00
39951;DHT22;25629;51.444;-2.606;2023-04-15T12:37:02;17.60;1.00
39951;DHT22;25629;51.444;-2.606;2023-04-15T12:39:28;17.30;1.00
39951;DHT22;25629;51.444;-2.606;2023-04-15T12:41:54;17.00;1.00
39951;DHT22;25629;51.444;-2.606;2023-04-15T12:44:21;16.90;1.00
39951;DHT22;25629;51.444;-2.606;2023-04-15T12:46:47;16.80;1.00
39951;DHT22;25629;51.444;-2.606;2023-04-15T12:49:12;17.40;1.00
39951;DHT22;25629;51.444;-2.606;2023-04-15T12:51:44;18.60;1.00
39951;DHT22;25629;51.444;-2.606;2023-04-15T12:54:09;19.50;1.00
39951;DHT22;25629;51.444;-2.606;2023-04-15T12:56:35;19.40;1.00
39951;DHT22;25629;51.444;-2.606;2023-04-15T12:59:01;18.40;1.00
39951;DHT22;25629;51.444;-2.606;2023-04-15T13:01:26;17.30;1.00
39951;DHT22;25629;51.444;-2.606;2023-04-15T13:03:52;16.90;1.00
39951;DHT22;25629;51.444;-2.606;2023-04-15T13:06:18;16.50;1.00
39951;DHT22;25629;51.444;-2.606;2023-04-15T13:08:43;16.10;1.00
39951;DHT22;25629;51.444;-2.606;2023-04-15T13:11:09;16.00;1.00
39951;DHT22;25629;51.444;-2.606;2023-04-15T13:13:34;16.80;1.00
39951;DHT22;25629;51.444;-2.606;2023-04-15T13:16:00;18.40;1.00
39951;DHT22;25629;51.444;-2.606;2023-04-15T13:18:26;19.80;1.00
39951;DHT22;25629;51.444;-2.606;2023-04-15T13:20:51;20.10;99.90
39951;DHT22;25629;51.444;-2.606;2023-04-15T13:23:18;19.30;99.90
39951;DHT22;25629;51.444;-2.606;2023-04-15T13:25:44;18.40;99.90
39951;DHT22;25629;51.444;-2.606;2023-04-15T13:28:10;17.90;99.90
39951;DHT22;25629;51.444;-2.606;2023-04-15T13:30:36;18.20;99.90
39951;DHT22;25629;51.444;-2.606;2023-04-15T13:33:02;18.80;99.90
39951;DHT22;25629;51.444;-2.606;2023-04-15T13:35:27;19.80;99.90
39951;DHT22;25629;51.444;-2.606;2023-04-15T13:37:53;20.80;99.90
39951;DHT22;25629;51.444;-2.606;2023-04-15T13:40:20;21.50;99.90
39951;DHT22;25629;51.444;-2.606;2023-04-15T13:42:45;22.20;99.90
39951;DHT22;25629;51.444;-2.606;2023-04-15T13:45:11;22.40;99.90
39951;DHT22;25629;51.444;-2.606;2023-04-15T13:47:37;21.90;99.90
39951;DHT22;25629;51.444;-2.606;2023-04-15T13:50:03;21.70;99.90
39951;DHT22;25629;51.444;-2.606;2023-04-15T13:52:28;21.40;99.90
39951;DHT22;25629;51.444;-2.606;2023-04-15T13:54:54;21.40;99.90
39951;DHT22;25629;51.444;-2.606;2023-04-15T13:57:19;20.40;99.90
39951;DHT22;25629;51.444;-2.606;2023-04-15T13:59:45;19.90;99.90
39951;DHT22;25629;51.444;-2.606;2023-04-15T14:02:11;20.40;99.90
39951;DHT22;25629;51.444;-2.606;2023-04-15T14:04:36;21.00;99.90
39951;DHT22;25629;51.444;-2.606;2023-04-15T14:07:02;21.50;99.90
39951;DHT22;25629;51.444;-2.606;2023-04-15T14:09:28;22.40;99.90
39951;DHT22;25629;51.444;-2.606;2023-04-15T14:11:53;22.40;99.90
39951;DHT22;25629;51.444;-2.606;2023-04-15T14:14:19;22.60;99.90
39951;DHT22;25629;51.444;-2.606;2023-04-15T14:16:45;23.30;99.90
39951;DHT22;25629;51.444;-2.606;2023-04-15T14:19:10;24.10;99.90
39951;DHT22;25629;51.444;-2.606;2023-04-15T14:21:36;24.80;99.90
39951;DHT22;25629;51.444;-2.606;2023-04-15T14:24:01;25.10;99.90
39951;DHT22;25629;51.444;-2.606;2023-04-15T14:26:27;25.00;99.90
39951;DHT22;25629;51.444;-2.606;2023-04-15T14:28:52;25.60;99.90
39951;DHT22;25629;51.444;-2.606;2023-04-15T14:31:18;26.00;99.90
39951;DHT22;25629;51.444;-2.606;2023-04-15T14:33:44;25.20;99.90
39951;DHT22;25629;51.444;-2.606;2023-04-15T14:36:10;24.40;99.90
39951;DHT22;25629;51.444;-2.606;2023-04-15T14:38:36;24.40;99.90
39951;DHT22;25629;51.444;-2.606;2023-04-15T14:41:05;24.70;99.90
39951;DHT22;25629;51.444;-2.606;2023-04-15T14:43:30;24.80;99.90
39951;DHT22;25629;51.444;-2.606;2023-04-15T14:45:56;24.90;99.90
39951;DHT22;25629;51.444;-2.606;2023-04-15T14:48:22;24.30;99.90
39951;DHT22;25629;51.444;-2.606;2023-04-15T14:50:47;23.50;99.90
39951;DHT22;25629;51.444;-2.606;2023-04-15T14:53:13;22.60;99.90
39951;DHT22;25629;51.444;-2.606;2023-04-15T14:55:38;22.80;99.90
39951;DHT22;25629;51.444;-2.606;2023-04-15T14:58:05;23.60;99.90
39951;DHT22;25629;51.444;-2.606;2023-04-15T15:00:32;24.50;99.90
39951;DHT22;25629;51.444;-2.606;2023-04-15T15:02:58;25.10;99.90
39951;DHT22;25629;51.444;-2.606;2023-04-15T15:05:23;25.20;99.90
39951;DHT22;25629;51.444;-2.606;2023-04-15T15:07:49;24.90;99.90
39951;DHT22;25629;51.444;-2.606;2023-04-15T15:10:15;24.10;99.90
39951;DHT22;25629;51.444;-2.606;2023-04-15T15:12:41;24.90;99.90
39951;DHT22;25629;51.444;-2.606;2023-04-15T15:15:06;25.40;99.90
39951;DHT22;25629;51.444;-2.606;2023-04-15T15:17:33;25.80;99.90
39951;DHT22;25629;51.444;-2.606;2023-04-15T15:19:59;26.40;99.90
39951;DHT22;25629;51.444;-2.606;2023-04-15T15:22:24;25.30;99.90
39951;DHT22;25629;51.444;-2.606;2023-04-15T15:24:50;25.20;99.90
39951;DHT22;25629;51.444;-2.606;2023-04-15T15:27:15;24.80;99.90
39951;DHT22;25629;51.444;-2.606;2023-04-15T15:29:41;23.30;99.90
39951;DHT22;25629;51.444;-2.606;2023-04-15T15:32:07;22.10;99.90
39951;DHT22;25629;51.444;-2.606;2023-04-15T15:34:32;21.40;99.90
39951;DHT22;25629;51.444;-2.606;2023-04-15T15:36:59;20.90;99.90